Time,TemperatureF,DewpointF,PressureIn,WindDirection,WindDirectionDegrees,WindSpeedMPH,WindSpeedGustMPH,Humidity,HourlyPrecipIn,Conditions,Clouds,dailyrainin,SolarRadiationWatts/m^2,SoftwareType,DateUTC
2013-10-03 00:00:00,63.1,62.1,30.07,NE,48,0.0,0.0,96,0.00,,,0.00,0.0,meteohub,2013-10-03 04:00:00,
2013-10-03 00:01:00,63.1,62.1,30.07,NE,48,0.0,0.0,96,0.00,,,0.00,0.0,meteohub,2013-10-03 04:01:00,
2013-10-03 00:03:00,63.1,62.1,30.07,NE,48,0.0,0.0,96,0.00,,,0.00,0.0,meteohub,2013-10-03 04:03:00,
2013-10-03 00:08:00,63.0,61.9,30.07,NE,48,0.0,0.0,96,0.00,,,0.00,0.0,meteohub,2013-10-03 04:08:00,
2013-10-03 00:13:00,62.8,61.7,30.07,NE,48,0.0,0.0,96,0.00,,,0.00,0.0,meteohub,2013-10-03 04:13:00,
2013-10-03 00:18:00,62.8,61.7,30.06,NE,48,0.0,0.0,96,0.00,,,0.00,0.0,meteohub,2013-10-03 04:18:00,
2013-10-03 00:23:00,62.4,61.3,30.06,NE,48,0.0,0.0,96,0.00,,,0.00,0.0,meteohub,2013-10-03 04:23:00,
2013-10-03 00:28:00,62.4,61.3,30.06,NE,48,0.0,0.0,96,0.00,,,0.00,0.0,meteohub,2013-10-03 04:28:00,
2013-10-03 00:33:00,62.4,61.3,30.06,NE,48,0.0,0.0,96,0.00,,,0.00,0.0,meteohub,2013-10-03 04:33:00,
2013-10-03 00:38:00,62.6,61.5,30.06,NE,48,0.0,0.0,96,0.00,,,0.00,0.0,meteohub,2013-10-03 04:38:00,
2013-10-03 00:43:00,62.8,61.9,30.06,NE,48,0.0,0.0,97,0.00,,,0.00,0.0,meteohub,2013-10-03 04:43:00,
2013-10-03 00:48:00,62.6,61.5,30.06,NE,48,0.0,0.0,96,0.00,,,0.00,0.0,meteohub,2013-10-03 04:48:00,
2013-10-03 00:53:00,62.4,61.3,30.06,NE,48,0.0,0.0,96,0.00,,,0.00,0.0,meteohub,2013-10-03 04:53:00,
2013-10-03 00:58:00,62.2,61.2,30.06,NE,48,0.0,0.0,96,0.00,,,0.00,0.0,meteohub,2013-10-03 04:58:00,
2013-10-03 01:03:00,62.2,61.2,30.06,NE,48,0.0,0.0,96,0.00,,,0.00,0.0,meteohub,2013-10-03 05:03:00,
2013-10-03 01:08:00,62.2,61.2,30.06,NE,48,0.0,0.0,96,0.00,,,0.00,0.0,meteohub,2013-10-03 05:08:00,
2013-10-03 01:13:00,62.2,61.2,30.06,NE,48,0.0,0.0,96,0.00,,,0.00,0.0,meteohub,2013-10-03 05:13:00,
2013-10-03 01:18:00,62.1,61.2,30.06,NE,48,0.0,0.0,97,0.00,,,0.00,0.0,meteohub,2013-10-03 05:18:00,
2013-10-03 01:23:00,62.1,61.2,30.06,NE,48,0.0,0.0,97,0.00,,,0.00,0.0,meteohub,2013-10-03 05:23:00,
2013-10-03 01:28:00,62.1,61.2,30.06,NE,48,0.0,0.0,97,0.00,,,0.00,0.0,meteohub,2013-10-03 05:28:00,
2013-10-03 01:33:00,62.1,61.2,30.06,NE,48,0.0,0.0,97,0.00,,,0.00,0.0,meteohub,2013-10-03 05:33:00,
2013-10-03 01:38:00,62.1,61.2,30.06,NE,48,0.0,0.0,97,0.00,,,0.00,0.0,meteohub,2013-10-03 05:38:00,
2013-10-03 01:43:00,61.9,60.8,30.06,NE,48,0.0,0.0,96,0.00,,,0.00,0.0,meteohub,2013-10-03 05:43:00,
2013-10-03 01:48:00,61.5,60.4,30.06,NE,48,0.0,0.0,96,0.00,,,0.00,0.0,meteohub,2013-10-03 05:48:00,
2013-10-03 01:53:00,61.5,60.6,30.05,NE,48,0.0,0.0,97,0.00,,,0.00,0.0,meteohub,2013-10-03 05:53:00,
2013-10-03 01:58:00,61.7,60.8,30.05,NE,48,0.0,0.0,97,0.00,,,0.00,0.0,meteohub,2013-10-03 05:58:00,
2013-10-03 02:03:00,61.5,60.6,30.05,NE,48,0.0,0.0,97,0.00,,,0.00,0.0,meteohub,2013-10-03 06:03:00,
2013-10-03 02:08:00,61.5,60.6,30.05,NE,48,0.0,0.0,97,0.00,,,0.00,0.0,meteohub,2013-10-03 06:08:00,
2013-10-03 02:13:00,61.5,60.6,30.05,NE,48,0.0,0.0,97,0.00,,,0.00,0.0,meteohub,2013-10-03 06:13:00,
2013-10-03 02:18:00,61.5,60.6,30.05,NE,48,0.0,0.0,97,0.00,,,0.00,0.0,meteohub,2013-10-03 06:18:00,
2013-10-03 02:23:00,61.5,60.6,30.05,NE,48,0.0,0.0,97,0.00,,,0.00,0.0,meteohub,2013-10-03 06:23:00,
2013-10-03 02:28:00,61.5,60.6,30.05,NE,48,0.0,0.0,97,0.00,,,0.00,0.0,meteohub,2013-10-03 06:28:00,
2013-10-03 02:33:00,61.5,60.6,30.05,NE,48,0.0,0.0,97,0.00,,,0.00,0.0,meteohub,2013-10-03 06:33:00,
2013-10-03 02:38:00,61.5,60.6,30.05,NE,48,0.0,0.0,97,0.00,,,0.00,0.0,meteohub,2013-10-03 06:38:00,
2013-10-03 02:43:00,61.5,60.6,30.05,NE,48,0.0,0.0,97,0.00,,,0.00,0.0,meteohub,2013-10-03 06:43:00,
2013-10-03 02:48:00,61.3,60.4,30.05,NE,48,0.0,0.0,97,0.00,,,0.00,0.0,meteohub,2013-10-03 06:48:00,
2013-10-03 02:53:00,61.3,60.4,30.05,NE,48,0.0,0.0,97,0.00,,,0.00,0.0,meteohub,2013-10-03 06:53:00,
2013-10-03 02:58:00,61.5,60.6,30.04,NE,48,0.0,0.0,97,0.00,,,0.00,0.0,meteohub,2013-10-03 06:58:00,
2013-10-03 03:03:00,61.3,60.4,30.04,NE,48,0.0,0.0,97,0.00,,,0.00,0.0,meteohub,2013-10-03 07:03:00,
2013-10-03 03:08:00,61.3,60.4,30.04,NE,48,0.0,0.0,97,0.00,,,0.00,0.0,meteohub,2013-10-03 07:08:00,
2013-10-03 03:13:00,61.2,60.3,30.04,NE,48,0.0,0.0,97,0.00,,,0.00,0.0,meteohub,2013-10-03 07:13:00,
2013-10-03 03:18:00,61.0,60.1,30.04,NE,48,0.0,0.0,97,0.00,,,0.00,0.0,meteohub,2013-10-03 07:18:00,
2013-10-03 03:24:00,61.0,60.1,30.04,NE,48,0.0,0.0,97,0.00,,,0.00,0.0,meteohub,2013-10-03 07:24:00,
2013-10-03 03:28:00,60.6,59.7,30.04,NE,48,0.0,0.0,97,0.00,,,0.00,0.0,meteohub,2013-10-03 07:28:00,
2013-10-03 03:33:00,60.6,59.7,30.04,NE,48,0.0,0.0,97,0.00,,,0.00,0.0,meteohub,2013-10-03 07:33:00,
2013-10-03 03:38:00,60.6,59.7,30.04,NE,48,0.0,0.0,97,0.00,,,0.00,0.0,meteohub,2013-10-03 07:38:00,
2013-10-03 03:43:00,60.6,59.7,30.04,NE,48,0.0,0.0,97,0.00,,,0.00,0.0,meteohub,2013-10-03 07:43:00,
2013-10-03 03:48:00,60.6,59.7,30.04,NE,48,0.0,0.0,97,0.00,,,0.00,0.0,meteohub,2013-10-03 07:48:00,
2013-10-03 03:54:00,60.4,59.5,30.04,NE,48,0.0,0.0,97,0.00,,,0.00,0.0,meteohub,2013-10-03 07:54:00,
2013-10-03 03:59:00,60.4,59.5,30.04,NE,48,0.0,0.0,97,0.00,,,0.00,0.0,meteohub,2013-10-03 07:59:00,
2013-10-03 04:04:00,60.4,59.5,30.03,NE,48,0.0,0.0,97,0.00,,,0.00,0.0,meteohub,2013-10-03 08:04:00,
2013-10-03 04:09:00,60.4,59.5,30.03,NE,48,0.0,0.0,97,0.00,,,0.00,0.0,meteohub,2013-10-03 08:09:00,
2013-10-03 04:14:00,60.4,59.5,30.03,NE,48,0.0,0.0,97,0.00,,,0.00,0.0,meteohub,2013-10-03 08:14:00,
2013-10-03 04:19:00,60.3,59.4,30.03,NE,48,0.0,0.0,97,0.00,,,0.00,0.0,meteohub,2013-10-03 08:19:00,
2013-10-03 04:24:00,60.3,59.4,30.03,NE,48,0.0,0.0,97,0.00,,,0.00,0.0,meteohub,2013-10-03 08:24:00,
2013-10-03 04:29:00,60.1,59.2,30.03,NE,48,0.0,0.0,97,0.00,,,0.00,0.0,meteohub,2013-10-03 08:29:00,
2013-10-03 04:34:00,60.1,59.2,30.03,NE,48,0.0,0.0,97,0.00,,,0.00,0.0,meteohub,2013-10-03 08:34:00,
2013-10-03 04:39:00,60.1,59.2,30.03,NE,48,0.0,0.0,97,0.00,,,0.00,0.0,meteohub,2013-10-03 08:39:00,
2013-10-03 04:44:00,60.3,59.4,30.03,NE,48,0.0,0.0,97,0.00,,,0.00,0.0,meteohub,2013-10-03 08:44:00,
2013-10-03 04:49:00,60.3,59.4,30.03,NE,48,0.0,0.0,97,0.00,,,0.00,0.0,meteohub,2013-10-03 08:49:00,
2013-10-03 04:54:00,60.1,59.2,30.03,NE,48,0.0,0.0,97,0.00,,,0.00,0.0,meteohub,2013-10-03 08:54:00,
2013-10-03 04:59:00,60.3,59.4,30.03,NE,48,0.0,0.0,97,0.00,,,0.00,0.0,meteohub,2013-10-03 08:59:00,
2013-10-03 05:04:00,60.4,59.5,30.03,NE,48,0.0,0.0,97,0.00,,,0.00,0.0,meteohub,2013-10-03 09:04:00,
2013-10-03 05:09:00,60.4,59.5,30.03,NE,48,0.0,0.0,97,0.00,,,0.00,0.0,meteohub,2013-10-03 09:09:00,
2013-10-03 05:14:00,60.4,59.5,30.03,NE,48,0.0,0.0,97,0.00,,,0.00,0.0,meteohub,2013-10-03 09:14:00,
2013-10-03 05:19:00,60.4,59.5,30.03,NE,48,0.0,0.0,97,0.00,,,0.00,0.0,meteohub,2013-10-03 09:19:00,
2013-10-03 05:24:00,60.4,59.5,30.03,NE,48,0.0,0.0,97,0.00,,,0.00,0.0,meteohub,2013-10-03 09:24:00,
2013-10-03 05:29:00,60.4,59.5,30.03,NE,48,0.0,0.0,97,0.00,,,0.00,0.0,meteohub,2013-10-03 09:29:00,
2013-10-03 05:34:00,61.0,60.4,30.03,NE,48,0.0,0.0,98,0.00,,,0.00,0.0,meteohub,2013-10-03 09:34:00,
2013-10-03 05:39:00,61.2,60.6,30.03,NE,48,0.0,0.0,98,0.00,,,0.00,0.0,meteohub,2013-10-03 09:39:00,
2013-10-03 05:44:00,61.3,60.4,30.03,NE,48,0.0,0.0,97,0.00,,,0.00,0.0,meteohub,2013-10-03 09:44:00,
2013-10-03 05:49:00,61.3,60.4,30.03,NE,48,0.0,0.0,97,0.00,,,0.00,0.0,meteohub,2013-10-03 09:49:00,
2013-10-03 05:54:00,61.2,60.3,30.03,NE,48,0.0,0.0,97,0.00,,,0.00,0.0,meteohub,2013-10-03 09:54:00,
2013-10-03 05:59:00,61.2,60.3,30.03,NE,48,0.0,0.0,97,0.00,,,0.00,0.0,meteohub,2013-10-03 09:59:00,
2013-10-03 06:04:00,61.2,60.6,30.03,NE,48,0.0,0.0,98,0.00,,,0.00,0.0,meteohub,2013-10-03 10:04:00,
2013-10-03 06:09:00,61.2,60.6,30.03,NE,48,0.0,0.0,98,0.00,,,0.00,0.0,meteohub,2013-10-03 10:09:00,
2013-10-03 06:14:00,61.1,61.0,30.03,NE,48,0.0,-999.0,98,-99.99,,,0.00,0,weatherlink.com 1.10,2013-10-03 10:14:00,
2013-10-03 06:19:00,61.2,60.6,30.03,NE,48,0.0,0.0,98,0.00,,,0.00,0.0,meteohub,2013-10-03 10:19:00,
2013-10-03 06:24:00,61.2,60.6,30.03,NE,48,0.0,0.0,98,0.00,,,0.00,0.0,meteohub,2013-10-03 10:24:00,
2013-10-03 06:29:00,61.2,61.0,30.03,NE,48,0.0,-999.0,98,-99.99,,,0.00,0,weatherlink.com 1.10,2013-10-03 10:29:00,
2013-10-03 06:34:00,61.2,60.6,30.03,NE,48,0.0,0.0,98,0.00,,,0.00,0.0,meteohub,2013-10-03 10:34:00,
2013-10-03 06:39:00,61.2,60.6,30.03,NE,48,0.0,0.0,98,0.00,,,0.00,0.0,meteohub,2013-10-03 10:39:00,
2013-10-03 06:44:00,61.1,61.0,30.03,NE,48,0.0,-999.0,98,-99.99,,,0.01,0,weatherlink.com 1.10,2013-10-03 10:44:00,
2013-10-03 06:49:00,61.3,60.8,30.04,NE,48,0.0,0.0,98,0.01,,,0.01,0.0,meteohub,2013-10-03 10:49:00,
2013-10-03 06:54:00,61.3,60.8,30.04,NE,48,0.0,0.0,98,0.01,,,0.01,0.0,meteohub,2013-10-03 10:54:00,
2013-10-03 06:59:00,61.5,61.0,30.04,NE,48,0.0,0.0,98,0.01,,,0.01,0.0,meteohub,2013-10-03 10:59:00,
2013-10-03 07:04:00,61.5,61.0,30.04,NE,48,0.0,0.0,98,0.01,,,0.01,0.0,meteohub,2013-10-03 11:04:00,
2013-10-03 07:09:00,61.5,61.0,30.04,NE,48,0.0,0.0,98,0.01,,,0.01,0.0,meteohub,2013-10-03 11:09:00,
2013-10-03 07:14:00,61.5,61.0,30.04,NE,48,0.0,0.0,98,0.01,,,0.01,5.0,meteohub,2013-10-03 11:14:00,
2013-10-03 07:19:00,61.5,61.0,30.04,NE,48,0.0,0.0,98,0.01,,,0.01,0.0,meteohub,2013-10-03 11:19:00,
2013-10-03 07:24:00,61.5,61.0,30.04,NE,48,0.0,0.0,98,0.01,,,0.01,5.0,meteohub,2013-10-03 11:24:00,
2013-10-03 07:29:00,61.7,61.2,30.04,NE,48,0.0,0.0,98,0.01,,,0.01,11.0,meteohub,2013-10-03 11:29:00,
2013-10-03 07:34:00,61.7,61.2,30.04,NE,48,0.0,0.0,98,0.01,,,0.01,14.0,meteohub,2013-10-03 11:34:00,
2013-10-03 07:39:00,61.7,61.2,30.04,NE,48,0.0,0.0,98,0.01,,,0.01,16.0,meteohub,2013-10-03 11:39:00,
2013-10-03 07:44:00,61.9,61.3,30.04,NE,48,0.0,0.0,98,0.00,,,0.01,21.0,meteohub,2013-10-03 11:44:00,
2013-10-03 07:49:00,62.1,61.5,30.04,NE,48,0.0,0.0,98,0.00,,,0.01,28.0,meteohub,2013-10-03 11:49:00,
2013-10-03 07:54:00,62.2,61.7,30.04,NE,48,0.0,0.0,98,0.00,,,0.01,37.0,meteohub,2013-10-03 11:54:00,
2013-10-03 07:59:00,62.8,62.2,30.04,NE,48,0.0,0.0,98,0.00,,,0.01,49.0,meteohub,2013-10-03 11:59:00,
2013-10-03 08:04:00,63.1,62.6,30.05,NE,48,0.0,0.0,98,0.00,,,0.01,63.0,meteohub,2013-10-03 12:04:00,
2013-10-03 08:09:00,63.3,62.8,30.05,NE,48,0.0,0.0,98,0.00,,,0.01,88.0,meteohub,2013-10-03 12:09:00,
2013-10-03 08:14:00,63.9,63.3,30.05,NE,48,0.0,0.0,98,0.00,,,0.01,91.0,meteohub,2013-10-03 12:14:00,
2013-10-03 08:19:00,64.2,63.7,30.05,NE,48,0.0,0.0,98,0.00,,,0.01,90.0,meteohub,2013-10-03 12:19:00,
2013-10-03 08:24:00,64.6,64.0,30.06,NE,48,0.0,0.0,98,0.00,,,0.01,100.0,meteohub,2013-10-03 12:24:00,
2013-10-03 08:29:00,64.8,64.2,30.06,NE,48,0.0,0.0,98,0.00,,,0.01,100.0,meteohub,2013-10-03 12:29:00,
2013-10-03 08:34:00,64.9,64.4,30.06,NE,48,0.0,0.0,98,0.00,,,0.01,135.0,meteohub,2013-10-03 12:34:00,
2013-10-03 08:39:00,65.3,64.8,30.06,NE,48,0.0,0.0,98,0.00,,,0.01,192.0,meteohub,2013-10-03 12:39:00,
2013-10-03 08:44:00,65.7,65.1,30.06,NE,48,0.0,0.0,98,0.00,,,0.01,272.0,meteohub,2013-10-03 12:44:00,
2013-10-03 08:49:00,66.0,65.5,30.06,NE,48,0.0,2.0,98,0.00,,,0.01,267.0,meteohub,2013-10-03 12:49:00,
2013-10-03 08:54:00,66.4,65.8,30.06,NE,48,0.0,2.0,98,0.00,,,0.01,251.0,meteohub,2013-10-03 12:54:00,
2013-10-03 08:59:00,66.7,66.2,30.06,East,82,0.0,2.0,98,0.00,,,0.01,295.0,meteohub,2013-10-03 12:59:00,
2013-10-03 09:04:00,67.5,66.9,30.06,NE,48,0.0,3.0,98,0.00,,,0.01,244.0,meteohub,2013-10-03 13:04:00,
2013-10-03 09:09:00,67.8,67.3,30.07,NE,49,0.0,4.0,98,0.00,,,0.01,311.0,meteohub,2013-10-03 13:09:00,
2013-10-03 09:14:00,68.4,67.8,30.07,NE,49,0.0,4.0,98,0.00,,,0.01,265.0,meteohub,2013-10-03 13:14:00,
2013-10-03 09:19:00,68.7,68.2,30.07,NE,48,0.0,3.0,98,0.00,,,0.01,153.0,meteohub,2013-10-03 13:19:00,
2013-10-03 09:24:00,68.9,68.4,30.07,NE,49,0.0,2.0,98,0.00,,,0.01,160.0,meteohub,2013-10-03 13:24:00,
2013-10-03 09:29:00,69.3,68.7,30.08,NE,49,0.0,2.0,98,0.00,,,0.01,206.0,meteohub,2013-10-03 13:29:00,
2013-10-03 09:34:00,69.6,68.7,30.08,NE,49,0.0,3.0,97,0.00,,,0.01,355.0,meteohub,2013-10-03 13:34:00,
2013-10-03 09:39:00,70.2,69.3,30.08,West,275,0.0,3.0,97,0.00,,,0.01,290.0,meteohub,2013-10-03 13:39:00,
2013-10-03 09:44:00,70.7,69.4,30.08,WNW,294,0.0,1.0,96,0.00,,,0.01,295.0,meteohub,2013-10-03 13:44:00,
2013-10-03 09:49:00,71.1,69.6,30.08,NE,50,3.0,3.0,95,0.00,,,0.01,476.0,meteohub,2013-10-03 13:49:00,
2013-10-03 09:54:00,71.6,69.8,30.08,NE,48,1.0,4.0,94,0.00,,,0.01,455.0,meteohub,2013-10-03 13:54:00,
2013-10-03 09:59:00,72.3,70.2,30.08,NNE,25,2.0,6.0,93,0.00,,,0.01,480.0,meteohub,2013-10-03 13:59:00,
2013-10-03 10:05:00,73.0,70.3,30.08,NE,38,0.0,6.0,91,0.00,,,0.01,522.0,meteohub,2013-10-03 14:05:00,
2013-10-03 10:10:00,73.9,70.5,30.08,NNE,29,1.0,6.0,89,0.00,,,0.01,643.0,meteohub,2013-10-03 14:10:00,
2013-10-03 10:15:00,74.5,70.3,30.08,NNE,26,2.0,7.0,87,0.00,,,0.01,573.0,meteohub,2013-10-03 14:15:00,
2013-10-03 10:20:00,74.8,70.7,30.08,NE,53,2.0,8.0,87,0.00,,,0.01,512.0,meteohub,2013-10-03 14:20:00,
2013-10-03 10:25:00,75.6,71.4,30.08,NE,46,1.0,8.0,87,0.00,,,0.01,671.0,meteohub,2013-10-03 14:25:00,
2013-10-03 10:30:00,76.1,71.2,30.09,NE,55,3.0,8.0,85,0.00,,,0.01,686.0,meteohub,2013-10-03 14:30:00,
2013-10-03 10:35:00,76.1,71.2,30.09,ENE,67,2.0,7.0,85,0.00,,,0.01,397.0,meteohub,2013-10-03 14:35:00,
2013-10-03 10:40:00,75.9,71.1,30.09,NNE,13,3.0,8.0,85,0.00,,,0.01,594.0,meteohub,2013-10-03 14:40:00,
2013-10-03 10:45:00,76.3,71.4,30.09,ENE,58,2.0,8.0,85,0.00,,,0.01,596.0,meteohub,2013-10-03 14:45:00,
2013-10-03 10:50:00,76.3,71.4,30.09,NE,41,2.0,8.0,85,0.00,,,0.01,424.0,meteohub,2013-10-03 14:50:00,
2013-10-03 10:55:00,76.3,71.4,30.09,ESE,122,2.0,7.0,85,0.00,,,0.01,348.0,meteohub,2013-10-03 14:55:00,
2013-10-03 11:00:00,76.3,71.4,30.09,NNE,29,0.0,8.0,85,0.00,,,0.01,376.0,meteohub,2013-10-03 15:00:00,
2013-10-03 11:05:00,76.5,72.0,30.09,North,0,0.0,8.0,86,0.00,,,0.01,552.0,meteohub,2013-10-03 15:05:00,
2013-10-03 11:10:00,76.8,72.0,30.09,NE,41,3.0,8.0,85,0.00,,,0.01,494.0,meteohub,2013-10-03 15:10:00,
2013-10-03 11:15:00,77.2,72.0,30.09,ENE,66,1.0,7.0,84,0.00,,,0.01,520.0,meteohub,2013-10-03 15:15:00,
2013-10-03 11:20:00,77.2,72.0,30.10,NE,48,2.0,7.0,84,0.00,,,0.01,540.0,meteohub,2013-10-03 15:20:00,
2013-10-03 11:25:00,77.2,72.0,30.10,NE,50,2.0,7.0,84,0.00,,,0.01,559.0,meteohub,2013-10-03 15:25:00,
2013-10-03 11:30:00,77.4,72.5,30.09,NE,39,4.0,7.0,85,0.00,,,0.01,545.0,meteohub,2013-10-03 15:30:00,
2013-10-03 11:35:00,77.7,72.1,30.10,NNE,13,1.0,6.0,83,0.00,,,0.01,469.0,meteohub,2013-10-03 15:35:00,
2013-10-03 11:40:00,77.5,71.6,30.10,NNE,32,3.0,5.0,82,0.00,,,0.01,410.0,meteohub,2013-10-03 15:40:00,
2013-10-03 11:45:00,77.4,70.7,30.09,NE,44,6.0,6.0,80,0.00,,,0.01,652.0,meteohub,2013-10-03 15:45:00,
2013-10-03 11:50:00,78.3,72.0,30.09,SE,126,2.0,6.0,81,0.00,,,0.01,800.0,meteohub,2013-10-03 15:50:00,
2013-10-03 11:55:00,78.4,71.4,30.09,ENE,63,1.0,6.0,79,0.00,,,0.01,796.0,meteohub,2013-10-03 15:55:00,
2013-10-03 12:00:00,78.8,72.1,30.09,ESE,118,5.0,7.0,80,0.00,,,0.01,916.0,meteohub,2013-10-03 16:00:00,
2013-10-03 12:05:00,79.0,72.0,30.09,East,92,2.0,7.0,79,0.00,,,0.01,925.0,meteohub,2013-10-03 16:05:00,
2013-10-03 12:10:00,79.3,72.3,30.09,NE,49,0.0,7.0,79,0.00,,,0.01,967.0,meteohub,2013-10-03 16:10:00,
2013-10-03 12:15:00,80.1,70.7,30.09,NNE,28,5.0,7.0,73,0.00,,,0.01,956.0,meteohub,2013-10-03 16:15:00,
2013-10-03 12:20:00,79.7,71.1,30.09,ENE,64,3.0,7.0,75,0.00,,,0.01,846.0,meteohub,2013-10-03 16:20:00,
2013-10-03 12:25:00,79.3,71.4,30.09,ENE,60,2.0,8.0,77,0.00,,,0.01,814.0,meteohub,2013-10-03 16:25:00,
2013-10-03 12:30:00,79.5,71.2,30.09,East,86,0.0,8.0,76,0.00,,,0.01,860.0,meteohub,2013-10-03 16:30:00,
2013-10-03 12:35:00,79.7,71.4,30.09,ENE,69,1.0,7.0,76,0.00,,,0.01,919.0,meteohub,2013-10-03 16:35:00,
2013-10-03 12:40:00,79.7,70.7,30.09,North,355,4.0,7.0,74,0.00,,,0.01,860.0,meteohub,2013-10-03 16:40:00,
2013-10-03 12:45:00,79.5,70.9,30.09,NNE,29,1.0,7.0,75,0.00,,,0.01,981.0,meteohub,2013-10-03 16:45:00,
2013-10-03 12:50:00,79.9,70.5,30.09,NNE,32,0.0,8.0,73,0.00,,,0.01,721.0,meteohub,2013-10-03 16:50:00,
2013-10-03 12:55:00,80.2,71.6,30.08,NE,53,4.0,8.0,75,0.00,,,0.01,967.0,meteohub,2013-10-03 16:55:00,
2013-10-03 13:00:00,80.1,71.4,30.08,SSE,155,0.0,8.0,75,0.00,,,0.01,1005.0,meteohub,2013-10-03 17:00:00,
2013-10-03 13:05:00,80.2,70.9,30.08,NNE,24,3.0,8.0,73,0.00,,,0.01,360.0,meteohub,2013-10-03 17:05:00,
2013-10-03 13:10:00,80.2,71.2,30.08,NNE,32,5.0,8.0,74,0.00,,,0.01,1092.0,meteohub,2013-10-03 17:10:00,
2013-10-03 13:15:00,80.1,71.4,30.08,ESE,105,0.0,7.0,75,0.00,,,0.01,390.0,meteohub,2013-10-03 17:15:00,
2013-10-03 13:20:00,80.1,71.1,30.07,ENE,59,1.0,7.0,74,0.00,,,0.01,1013.0,meteohub,2013-10-03 17:20:00,
2013-10-03 13:25:00,80.2,71.2,30.07,NNE,31,2.0,7.0,74,0.00,,,0.01,1002.0,meteohub,2013-10-03 17:25:00,
2013-10-03 13:30:00,80.2,71.2,30.07,NE,48,1.0,8.0,74,0.00,,,0.01,1021.0,meteohub,2013-10-03 17:30:00,
2013-10-03 13:35:00,80.6,71.1,30.07,NE,51,1.0,8.0,73,0.00,,,0.01,986.0,meteohub,2013-10-03 17:35:00,
2013-10-03 13:40:00,80.4,70.9,30.06,East,96,1.0,8.0,73,0.00,,,0.01,265.0,meteohub,2013-10-03 17:40:00,
2013-10-03 13:45:00,80.6,71.1,30.06,South,173,0.0,7.0,73,0.00,,,0.01,294.0,meteohub,2013-10-03 17:45:00,
2013-10-03 13:50:00,80.8,71.2,30.06,ENE,78,2.0,7.0,73,0.00,,,0.01,731.0,meteohub,2013-10-03 17:50:00,
2013-10-03 13:55:00,81.0,71.1,30.06,SE,128,2.0,6.0,72,0.00,,,0.01,939.0,meteohub,2013-10-03 17:55:00,
2013-10-03 14:00:00,81.3,71.1,30.06,SE,132,0.0,4.0,71,0.00,,,0.01,933.0,meteohub,2013-10-03 18:00:00,
2013-10-03 14:05:00,81.7,71.4,30.05,ESE,111,0.0,8.0,71,0.00,,,0.01,640.0,meteohub,2013-10-03 18:05:00,
2013-10-03 14:10:00,81.7,71.4,30.05,NE,46,0.0,8.0,71,0.00,,,0.01,1046.0,meteohub,2013-10-03 18:10:00,
2013-10-03 14:15:00,81.7,71.8,30.05,ENE,64,0.0,8.0,72,0.00,,,0.01,888.0,meteohub,2013-10-03 18:15:00,
2013-10-03 14:20:00,81.3,71.4,30.04,NE,49,2.0,8.0,72,0.00,,,0.01,905.0,meteohub,2013-10-03 18:20:00,
2013-10-03 14:25:00,81.0,71.1,30.04,NE,46,5.0,8.0,72,0.00,,,0.01,782.0,meteohub,2013-10-03 18:25:00,
2013-10-03 14:30:00,81.1,72.1,30.04,North,5,8.0,8.0,74,0.00,,,0.01,740.0,meteohub,2013-10-03 18:30:00,
2013-10-03 14:35:00,81.1,71.6,30.04,NE,40,0.0,8.0,73,0.00,,,0.01,570.0,meteohub,2013-10-03 18:35:00,
2013-10-03 14:40:00,81.3,71.8,30.04,ENE,74,0.0,8.0,73,0.00,,,0.01,759.0,meteohub,2013-10-03 18:40:00,
2013-10-03 14:45:00,81.3,71.8,30.04,NE,47,3.0,8.0,73,0.00,,,0.01,265.0,meteohub,2013-10-03 18:45:00,
2013-10-03 14:50:00,80.6,72.0,30.04,NNE,24,3.0,7.0,75,0.00,,,0.01,290.0,meteohub,2013-10-03 18:50:00,
2013-10-03 14:55:00,80.4,72.1,30.04,NE,45,5.0,9.0,76,0.00,,,0.01,826.0,meteohub,2013-10-03 18:55:00,
2013-10-03 15:00:00,80.4,72.1,30.03,NNW,348,5.0,9.0,76,0.00,,,0.01,369.0,meteohub,2013-10-03 19:00:00,
2013-10-03 15:05:00,81.0,72.3,30.03,NE,44,1.0,9.0,75,0.00,,,0.01,747.0,meteohub,2013-10-03 19:05:00,
2013-10-03 15:10:00,81.1,72.1,30.03,East,99,0.0,5.0,74,0.00,,,0.01,258.0,meteohub,2013-10-03 19:10:00,
2013-10-03 15:15:00,81.0,71.4,30.03,SSE,152,0.0,5.0,73,0.00,,,0.01,682.0,meteohub,2013-10-03 19:15:00,
2013-10-03 15:20:00,81.3,71.8,30.03,ESE,109,0.0,3.0,73,0.00,,,0.01,290.0,meteohub,2013-10-03 19:20:00,
2013-10-03 15:25:00,81.7,72.5,30.03,NE,40,4.0,9.0,74,0.00,,,0.01,756.0,meteohub,2013-10-03 19:25:00,
2013-10-03 15:30:00,81.3,72.7,30.03,ESE,115,0.0,9.0,75,0.00,,,0.01,188.0,meteohub,2013-10-03 19:30:00,
2013-10-03 15:35:00,80.8,72.1,30.03,North,5,0.0,9.0,75,0.00,,,0.01,236.0,meteohub,2013-10-03 19:35:00,
2013-10-03 15:40:00,80.4,71.8,30.03,NE,46,2.0,5.0,75,0.00,,,0.01,311.0,meteohub,2013-10-03 19:40:00,
2013-10-03 15:45:00,80.4,72.1,30.02,NE,45,0.0,5.0,76,0.00,,,0.01,246.0,meteohub,2013-10-03 19:45:00,
2013-10-03 15:50:00,80.4,72.5,30.03,ENE,75,1.0,7.0,77,0.00,,,0.01,418.0,meteohub,2013-10-03 19:50:00,
2013-10-03 15:55:00,80.6,72.3,30.02,NE,34,2.0,7.0,76,0.00,,,0.01,406.0,meteohub,2013-10-03 19:55:00,
2013-10-03 16:00:00,80.4,72.9,30.02,NE,34,5.0,8.0,78,0.00,,,0.01,515.0,meteohub,2013-10-03 20:00:00,
2013-10-03 16:05:00,80.4,72.5,30.02,ENE,65,2.0,8.0,77,0.00,,,0.01,610.0,meteohub,2013-10-03 20:05:00,
2013-10-03 16:10:00,80.2,72.7,30.02,NE,36,0.0,8.0,78,0.00,,,0.01,559.0,meteohub,2013-10-03 20:10:00,
2013-10-03 16:15:00,80.4,72.9,30.02,NE,37,6.0,10.0,78,0.00,,,0.01,272.0,meteohub,2013-10-03 20:15:00,
2013-10-03 16:20:00,80.1,73.0,30.02,ENE,57,0.0,10.0,79,0.00,,,0.01,308.0,meteohub,2013-10-03 20:20:00,
2013-10-03 16:25:00,80.1,73.0,30.02,NE,42,1.0,8.0,79,0.00,,,0.01,431.0,meteohub,2013-10-03 20:25:00,
2013-10-03 16:31:00,80.1,72.5,30.02,NE,55,3.0,8.0,78,0.00,,,0.01,315.0,meteohub,2013-10-03 20:31:00,
2013-10-03 16:36:00,80.1,72.5,30.02,ESE,108,0.0,7.0,78,0.00,,,0.01,454.0,meteohub,2013-10-03 20:36:00,
2013-10-03 16:41:00,80.1,72.5,30.02,NE,34,4.0,7.0,78,0.00,,,0.01,322.0,meteohub,2013-10-03 20:41:00,
2013-10-03 16:46:00,80.1,72.5,30.02,NE,55,1.0,7.0,78,0.00,,,0.01,267.0,meteohub,2013-10-03 20:46:00,
2013-10-03 16:51:00,79.9,72.0,30.02,NE,51,0.0,7.0,77,0.00,,,0.01,369.0,meteohub,2013-10-03 20:51:00,
2013-10-03 16:56:00,79.9,72.0,30.02,East,84,1.0,7.0,77,0.00,,,0.01,499.0,meteohub,2013-10-03 20:56:00,
2013-10-03 17:01:00,80.2,72.7,30.02,ESE,114,0.0,7.0,78,0.00,,,0.01,424.0,meteohub,2013-10-03 21:01:00,
2013-10-03 17:06:00,80.1,72.5,30.02,ENE,77,1.0,8.0,78,0.00,,,0.01,415.0,meteohub,2013-10-03 21:06:00,
2013-10-03 17:11:00,80.1,72.5,30.02,ENE,65,3.0,8.0,78,0.00,,,0.01,313.0,meteohub,2013-10-03 21:11:00,
2013-10-03 17:16:00,79.9,72.3,30.02,East,84,0.0,8.0,78,0.00,,,0.01,107.0,meteohub,2013-10-03 21:16:00,
2013-10-03 17:21:00,79.5,72.1,30.02,NNE,28,0.0,7.0,78,0.00,,,0.01,86.0,meteohub,2013-10-03 21:21:00,
2013-10-03 17:26:00,79.5,71.6,30.02,NNE,28,4.0,7.0,77,0.00,,,0.01,207.0,meteohub,2013-10-03 21:26:00,
2013-10-03 17:31:00,79.5,71.6,30.01,NNE,28,0.0,8.0,77,0.00,,,0.01,79.0,meteohub,2013-10-03 21:31:00,
2013-10-03 17:36:00,79.3,71.4,30.01,East,84,6.0,8.0,77,0.00,,,0.01,111.0,meteohub,2013-10-03 21:36:00,
2013-10-03 17:41:00,79.2,71.2,30.01,NNE,26,1.0,8.0,77,0.00,,,0.01,77.0,meteohub,2013-10-03 21:41:00,
2013-10-03 17:46:00,79.0,72.0,30.01,East,94,1.0,6.0,79,0.00,,,0.01,156.0,meteohub,2013-10-03 21:46:00,
2013-10-03 17:51:00,79.0,72.0,30.01,NE,45,1.0,7.0,79,0.00,,,0.01,53.0,meteohub,2013-10-03 21:51:00,
2013-10-03 17:56:00,78.6,72.0,30.02,ESE,117,2.0,7.0,80,0.00,,,0.01,47.0,meteohub,2013-10-03 21:56:00,
2013-10-03 18:01:00,78.6,72.3,30.02,NE,41,0.0,7.0,81,0.00,,,0.01,42.0,meteohub,2013-10-03 22:01:00,
2013-10-03 18:06:00,78.4,71.8,30.02,East,90,0.0,6.0,80,0.00,,,0.01,37.0,meteohub,2013-10-03 22:06:00,
2013-10-03 18:11:00,78.3,71.6,30.01,ESE,122,1.0,6.0,80,0.00,,,0.01,32.0,meteohub,2013-10-03 22:11:00,
2013-10-03 18:16:00,78.1,72.1,30.02,ENE,74,1.0,4.0,82,0.00,,,0.01,30.0,meteohub,2013-10-03 22:16:00,
2013-10-03 18:21:00,77.7,72.1,30.02,NNE,31,2.0,4.0,83,0.00,,,0.01,28.0,meteohub,2013-10-03 22:21:00,
2013-10-03 18:26:00,77.5,72.3,30.02,NNE,30,1.0,4.0,84,0.00,,,0.01,26.0,meteohub,2013-10-03 22:26:00,
2013-10-03 18:31:00,77.4,72.5,30.02,NNE,32,0.0,4.0,85,0.00,,,0.01,28.0,meteohub,2013-10-03 22:31:00,
2013-10-03 18:36:00,77.2,72.7,30.01,NE,53,1.0,4.0,86,0.00,,,0.01,30.0,meteohub,2013-10-03 22:36:00,
2013-10-03 18:41:00,76.8,72.7,30.02,NE,53,0.0,3.0,87,0.00,,,0.01,28.0,meteohub,2013-10-03 22:41:00,
2013-10-03 18:46:00,76.8,72.7,30.02,NE,53,0.0,3.0,87,0.00,,,0.01,23.0,meteohub,2013-10-03 22:46:00,
2013-10-03 18:51:00,76.6,72.9,30.02,NE,55,0.0,2.0,88,0.00,,,0.01,18.0,meteohub,2013-10-03 22:51:00,
2013-10-03 18:56:00,76.5,72.7,30.02,NE,55,0.0,2.0,88,0.00,,,0.01,11.0,meteohub,2013-10-03 22:56:00,
2013-10-03 19:01:00,76.3,72.9,30.02,NE,55,0.0,2.0,89,0.00,,,0.01,5.0,meteohub,2013-10-03 23:01:00,
2013-10-03 19:06:00,75.9,72.5,30.02,NE,55,0.0,1.0,89,0.00,,,0.01,0.0,meteohub,2013-10-03 23:06:00,
2013-10-03 19:11:00,75.7,72.7,30.02,NE,55,0.0,1.0,90,0.00,,,0.01,0.0,meteohub,2013-10-03 23:11:00,
2013-10-03 19:16:00,75.7,72.7,30.02,NE,55,0.0,1.0,90,0.00,,,0.01,0.0,meteohub,2013-10-03 23:16:00,
2013-10-03 19:21:00,75.6,72.5,30.02,NE,55,0.0,1.0,90,0.00,,,0.01,0.0,meteohub,2013-10-03 23:21:00,
2013-10-03 19:26:00,75.4,72.5,30.02,NE,55,0.0,1.0,91,0.00,,,0.01,0.0,meteohub,2013-10-03 23:26:00,
2013-10-03 19:31:00,75.0,72.1,30.02,NE,55,0.0,1.0,91,0.00,,,0.01,0.0,meteohub,2013-10-03 23:31:00,
2013-10-03 19:36:00,75.0,72.5,30.02,NE,55,0.0,0.0,92,0.00,,,0.01,0.0,meteohub,2013-10-03 23:36:00,
2013-10-03 19:41:00,74.8,72.3,30.03,NE,55,0.0,0.0,92,0.00,,,0.01,0.0,meteohub,2013-10-03 23:41:00,
2013-10-03 19:46:00,74.8,72.3,30.03,NE,55,0.0,0.0,92,0.00,,,0.01,0.0,meteohub,2013-10-03 23:46:00,
2013-10-03 19:51:00,74.7,72.5,30.03,NE,55,0.0,0.0,93,0.00,,,0.01,0.0,meteohub,2013-10-03 23:51:00,
2013-10-03 19:56:00,74.5,72.3,30.03,NE,55,0.0,0.0,93,0.00,,,0.01,0.0,meteohub,2013-10-03 23:56:00,
2013-10-03 20:01:00,74.3,72.1,30.03,NE,55,0.0,0.0,93,0.00,,,0.01,0.0,meteohub,2013-10-04 00:01:00,
2013-10-03 20:06:00,74.1,72.0,30.03,NE,55,0.0,0.0,93,0.00,,,0.01,0.0,meteohub,2013-10-04 00:06:00,
2013-10-03 20:12:00,73.9,72.1,30.03,NE,55,0.0,0.0,94,0.00,,,0.01,0.0,meteohub,2013-10-04 00:12:00,
2013-10-03 20:17:00,73.8,72.0,30.04,NE,55,0.0,0.0,94,0.00,,,0.01,0.0,meteohub,2013-10-04 00:17:00,
2013-10-03 20:22:00,73.6,71.8,30.04,NE,55,0.0,0.0,94,0.00,,,0.01,0.0,meteohub,2013-10-04 00:22:00,
2013-10-03 20:27:00,73.6,71.8,30.04,NE,55,0.0,0.0,94,0.00,,,0.01,0.0,meteohub,2013-10-04 00:27:00,
2013-10-03 20:32:00,73.4,71.6,30.04,NE,55,0.0,0.0,94,0.00,,,0.01,0.0,meteohub,2013-10-04 00:32:00,
2013-10-03 20:37:00,73.2,71.4,30.04,NE,55,0.0,0.0,94,0.00,,,0.01,0.0,meteohub,2013-10-04 00:37:00,
2013-10-03 20:42:00,73.0,71.6,30.04,NE,55,0.0,0.0,95,0.00,,,0.01,0.0,meteohub,2013-10-04 00:42:00,
2013-10-03 20:47:00,72.9,71.4,30.04,NE,55,0.0,0.0,95,0.00,,,0.01,0.0,meteohub,2013-10-04 00:47:00,
2013-10-03 20:52:00,72.9,71.4,30.05,NE,55,0.0,0.0,95,0.00,,,0.01,0.0,meteohub,2013-10-04 00:52:00,
2013-10-03 20:57:00,72.7,71.2,30.05,NE,55,0.0,0.0,95,0.00,,,0.01,0.0,meteohub,2013-10-04 00:57:00,
2013-10-03 21:02:00,72.7,71.2,30.05,NE,55,0.0,0.0,95,0.00,,,0.01,0.0,meteohub,2013-10-04 01:02:00,
2013-10-03 21:07:00,72.5,71.1,30.05,NE,55,0.0,0.0,95,0.00,,,0.01,0.0,meteohub,2013-10-04 01:07:00,
2013-10-03 21:12:00,72.3,70.9,30.05,NE,55,0.0,0.0,95,0.00,,,0.01,0.0,meteohub,2013-10-04 01:12:00,
2013-10-03 21:17:00,72.1,70.7,30.05,NE,55,0.0,0.0,95,0.00,,,0.01,0.0,meteohub,2013-10-04 01:17:00,
2013-10-03 21:22:00,72.1,70.7,30.05,NE,55,0.0,0.0,95,0.00,,,0.01,0.0,meteohub,2013-10-04 01:22:00,
2013-10-03 21:27:00,72.0,70.5,30.05,NE,55,0.0,0.0,95,0.00,,,0.01,0.0,meteohub,2013-10-04 01:27:00,
2013-10-03 21:32:00,72.0,70.5,30.05,NE,55,0.0,0.0,95,0.00,,,0.01,0.0,meteohub,2013-10-04 01:32:00,
2013-10-03 21:37:00,71.8,70.5,30.05,NE,55,0.0,0.0,96,0.00,,,0.01,0.0,meteohub,2013-10-04 01:37:00,
2013-10-03 21:42:00,72.0,70.7,30.05,NE,55,0.0,0.0,96,0.00,,,0.01,0.0,meteohub,2013-10-04 01:42:00,
2013-10-03 21:47:00,71.8,70.5,30.06,NE,55,0.0,0.0,96,0.00,,,0.01,0.0,meteohub,2013-10-04 01:47:00,
2013-10-03 21:52:00,71.8,70.5,30.06,NE,55,0.0,0.0,96,0.00,,,0.01,0.0,meteohub,2013-10-04 01:52:00,
2013-10-03 21:57:00,71.6,70.3,30.06,NE,55,0.0,0.0,96,0.00,,,0.01,0.0,meteohub,2013-10-04 01:57:00,
2013-10-03 22:02:00,71.4,70.2,30.06,NE,55,0.0,0.0,96,0.00,,,0.01,0.0,meteohub,2013-10-04 02:02:00,
2013-10-03 22:07:00,71.4,70.2,30.06,NE,55,0.0,0.0,96,0.00,,,0.01,0.0,meteohub,2013-10-04 02:07:00,
2013-10-03 22:12:00,71.2,70.0,30.06,NE,55,0.0,0.0,96,0.00,,,0.01,0.0,meteohub,2013-10-04 02:12:00,
2013-10-03 22:17:00,71.2,70.0,30.06,NE,55,0.0,0.0,96,0.00,,,0.01,0.0,meteohub,2013-10-04 02:17:00,
2013-10-03 22:22:00,71.2,70.0,30.06,NE,55,0.0,0.0,96,0.00,,,0.01,0.0,meteohub,2013-10-04 02:22:00,
2013-10-03 22:27:00,71.2,70.0,30.06,NE,55,0.0,0.0,96,0.00,,,0.01,0.0,meteohub,2013-10-04 02:27:00,
2013-10-03 22:32:00,71.2,70.0,30.06,NE,55,0.0,0.0,96,0.00,,,0.01,0.0,meteohub,2013-10-04 02:32:00,
2013-10-03 22:37:00,71.1,69.8,30.06,NE,55,0.0,0.0,96,0.00,,,0.01,0.0,meteohub,2013-10-04 02:37:00,
2013-10-03 22:42:00,71.1,69.8,30.06,NE,55,0.0,0.0,96,0.00,,,0.01,0.0,meteohub,2013-10-04 02:42:00,
2013-10-03 22:47:00,71.1,69.8,30.06,NE,55,0.0,0.0,96,0.00,,,0.01,0.0,meteohub,2013-10-04 02:47:00,
2013-10-03 22:52:00,70.9,69.6,30.06,NE,55,0.0,0.0,96,0.00,,,0.01,0.0,meteohub,2013-10-04 02:52:00,
2013-10-03 22:57:00,71.1,69.8,30.06,NE,55,0.0,0.0,96,0.00,,,0.01,0.0,meteohub,2013-10-04 02:57:00,
2013-10-03 23:02:00,71.1,70.2,30.06,NE,55,0.0,0.0,97,0.00,,,0.01,0.0,meteohub,2013-10-04 03:02:00,
2013-10-03 23:07:00,71.1,70.2,30.06,NE,55,0.0,0.0,97,0.00,,,0.01,0.0,meteohub,2013-10-04 03:07:00,
2013-10-03 23:12:00,71.1,70.2,30.06,NE,55,0.0,0.0,97,0.00,,,0.01,0.0,meteohub,2013-10-04 03:12:00,
2013-10-03 23:17:00,70.9,70.0,30.06,NE,55,0.0,0.0,97,0.00,,,0.01,0.0,meteohub,2013-10-04 03:17:00,
2013-10-03 23:22:00,70.9,70.0,30.06,NE,55,0.0,0.0,97,0.00,,,0.01,0.0,meteohub,2013-10-04 03:22:00,
2013-10-03 23:27:00,70.7,69.8,30.06,NE,55,0.0,0.0,97,0.00,,,0.01,0.0,meteohub,2013-10-04 03:27:00,
2013-10-03 23:32:00,70.5,69.6,30.06,NE,55,0.0,0.0,97,0.00,,,0.01,0.0,meteohub,2013-10-04 03:32:00,
2013-10-03 23:37:00,70.5,69.6,30.06,NE,55,0.0,0.0,97,0.00,,,0.01,0.0,meteohub,2013-10-04 03:37:00,
2013-10-03 23:42:00,70.3,69.4,30.06,NE,55,0.0,0.0,97,0.00,,,0.01,0.0,meteohub,2013-10-04 03:42:00,
2013-10-03 23:47:00,70.3,69.4,30.06,NE,55,0.0,0.0,97,0.00,,,0.01,0.0,meteohub,2013-10-04 03:47:00,
2013-10-03 23:52:00,70.3,69.4,30.06,NE,55,0.0,0.0,97,0.00,,,0.01,0.0,meteohub,2013-10-04 03:52:00,
2013-10-03 23:57:00,70.2,69.3,30.05,NE,55,0.0,0.0,97,0.00,,,0.01,0.0,meteohub,2013-10-04 03:57:00,